Kayenta, AZ (86033)

11:14 AM MDT on September 02, 2015 (GMT -0600)
Blanding | | Change Station
CLOSE
Current Station
Airport
Location: Blanding,
Elevation: 5863 ft
Nearby Weather Stations

Elev 5863 ft 37.58 °N, 109.48 °W | Updated 19 minutes ago

Partly Cloudy
Partly Cloudy
76 °F
Feels Like 76 °F
N
5
Wind Variable Wind from SW

Today
High -- | Low -- °F
--% Chance of Precip.
Yesterday
High -- | Low -- °F
Precip. -- in
6:52 AM 7:48 PM
Waning Gibbous, 79% visible
Pressure 30.31 in
Visibility 10.0 miles
Clouds Scattered Clouds 8000 ft
Dew Point 49 °F
Humidity 38%
Rainfall 0.00 in
Snow Depth Not available.
UV 6 out of 12
Pollen 8.60 out of 12
Air Quality Not available.
Flu Activity Not available.
METAR KBDG 021655Z AUTO 22004KT 10SM SCT080 24/09 A3031 RMK AO1 T02420092
Pressure 30.31 in
Visibility 10.0 miles
Clouds Scattered Clouds 8000 ft
Dew Point 49 °F
Humidity 38%
Rainfall 0.00 in
Snow Depth Not available.
UV 6 out of 12
Pollen 8.60 out of 12
Air Quality Not available.
Flu Activity Not available.
METAR KBDG 021655Z AUTO 22004KT 10SM SCT080 24/09 A3031 RMK AO1 T02420092

10-Day Weather Forecast

×

Almanac

Astronomy

Sep. 02, 2015 Rise Set
Actual Time
Civil Twilight
Nautical Twilight
Astronomical Twilight
Moon
Length of Visible Light
Length of Day
Tomorrow will be .
, % of the Moon is Illuminated

Today's Extremes

State Highs State Lows

Community

WunderPhotos

Upload Photos

1,851,785 photos uploaded!

WunderBlogs® & News

Nearby

Air Quality

  Air Quality AQ Index Pollutant
Not available.

Snow Depth

Station Depth Elevation

Earthquake Activity

City Distance Mag. Time & Date
Minimum magnitude displayed is 2.5.

Coastal Water Temperatures

Place Temperature

Stations

Nearby Weather Stations

Station Location Temp. Windchill Dew Point Humidity Wind Precip. Elev Updated Type